Terminal Aerodrome Forecast
Issued by NWS

Home | Current Version | Previous Version | Text Only | Print | Product List | Glossary On
Versions: 1 2 3 4 5 6 7 8 9 10 11 12 13 14 15 16 17 18 19 20 21 22
632
FTUS42 KMHX 250521
TAFOAJ
TAF
KOAJ 250521Z 2506/2606 23005KT P6SM SKC
     FM252000 20007KT P6SM FEW250
     FM260100 18003KT P6SM SKC
      AMD LTD TO CLD VIS AND WIND=

USA.gov is the U.S. government's official web portal to all federal, state and local government web resources and services.